createdAt,value
2023-03-10T00:01:25.971Z,0.70
2023-03-10T00:03:53.483Z,0.57
2023-03-10T00:06:21.235Z,0.68
2023-03-10T00:08:48.165Z,0.70
2023-03-10T00:11:15.244Z,0.93
2023-03-10T00:13:42.291Z,0.90
2023-03-10T00:16:12.894Z,0.80
2023-03-10T00:18:41.154Z,0.60
2023-03-10T00:21:10.831Z,0.68
2023-03-10T00:23:37.714Z,0.65
2023-03-10T00:26:04.614Z,0.50
2023-03-10T00:28:31.420Z,0.85
2023-03-10T00:31:02.829Z,0.50
2023-03-10T00:33:30.863Z,0.60
2023-03-10T00:36:02.155Z,0.60
2023-03-10T00:38:29.079Z,0.50
2023-03-10T00:41:00.168Z,0.50
2023-03-10T00:43:27.766Z,0.40
2023-03-10T00:45:54.741Z,0.50
2023-03-10T00:48:21.581Z,0.30
2023-03-10T00:50:48.634Z,0.38
2023-03-10T00:53:15.444Z,0.43
2023-03-10T00:55:42.614Z,0.75
2023-03-10T00:58:09.518Z,0.50
2023-03-10T01:00:36.545Z,0.57
2023-03-10T01:03:03.491Z,0.60
2023-03-10T01:05:30.397Z,0.50
2023-03-10T01:07:57.256Z,0.63
2023-03-10T01:10:24.192Z,0.60
2023-03-10T01:12:50.992Z,0.60
2023-03-10T01:15:17.935Z,0.80
2023-03-10T01:17:44.730Z,0.70
2023-03-10T01:20:15.122Z,1.00
2023-03-10T01:22:42.110Z,0.77
2023-03-10T01:25:12.492Z,0.70
2023-03-10T01:27:39.320Z,0.85
2023-03-10T01:30:06.525Z,1.23
2023-03-10T01:32:33.529Z,0.75
2023-03-10T01:35:00.397Z,0.80
2023-03-10T01:37:27.568Z,1.02
2023-03-10T01:39:54.346Z,1.10
2023-03-10T01:42:21.158Z,0.82
2023-03-10T01:45:07.011Z,0.85
2023-03-10T01:47:33.884Z,0.80
2023-03-10T01:50:01.140Z,0.88
2023-03-10T01:52:30.752Z,1.20
2023-03-10T01:54:57.574Z,1.20
2023-03-10T01:57:25.965Z,0.90
2023-03-10T01:59:53.782Z,1.27
2023-03-10T02:02:20.992Z,0.57
2023-03-10T02:04:48.830Z,0.70
2023-03-10T02:07:21.298Z,0.90
2023-03-10T02:09:48.961Z,0.80
2023-03-10T02:12:15.867Z,1.15
2023-03-10T02:14:44.457Z,0.63
2023-03-10T02:17:13.943Z,0.68
2023-03-10T02:19:50.493Z,0.75
2023-03-10T02:22:17.416Z,0.88
2023-03-10T02:24:47.529Z,1.10
2023-03-10T02:27:24.853Z,0.93
2023-03-10T02:29:59.291Z,1.15
2023-03-10T02:32:28.079Z,1.15
2023-03-10T02:34:54.968Z,1.13
2023-03-10T02:37:23.401Z,1.20
2023-03-10T02:39:50.185Z,0.90
2023-03-10T02:42:17.995Z,1.00
2023-03-10T02:44:46.188Z,1.00
2023-03-10T02:47:13.102Z,0.90
2023-03-10T02:49:40.737Z,0.95
2023-03-10T02:52:10.044Z,0.90
2023-03-10T02:54:36.900Z,1.15
2023-03-10T02:57:03.835Z,1.00
2023-03-10T02:59:30.743Z,0.80
2023-03-10T03:01:57.507Z,0.90
2023-03-10T03:04:24.354Z,0.80
2023-03-10T03:06:51.195Z,0.70
2023-03-10T03:09:18.107Z,0.90
2023-03-10T03:11:45.022Z,0.63
2023-03-10T03:14:12.163Z,0.77
2023-03-10T03:16:39.046Z,0.88
2023-03-10T03:19:05.900Z,1.08
2023-03-10T03:21:32.780Z,1.00
2023-03-10T03:23:59.590Z,1.33
2023-03-10T03:26:27.411Z,0.65
2023-03-10T03:28:54.315Z,0.90
2023-03-10T03:31:22.838Z,1.25
2023-03-10T03:33:49.733Z,1.00
2023-03-10T03:36:16.826Z,1.10
2023-03-10T03:38:43.639Z,1.00
2023-03-10T03:41:10.695Z,0.77
2023-03-10T03:43:37.611Z,1.23
2023-03-10T03:46:04.733Z,1.20
2023-03-10T03:48:31.685Z,1.40
2023-03-10T03:50:58.547Z,1.33
2023-03-10T03:53:25.381Z,1.52
2023-03-10T03:55:52.299Z,1.42
2023-03-10T03:58:19.133Z,1.42
2023-03-10T04:00:46.148Z,1.30
2023-03-10T04:03:13.114Z,1.48
2023-03-10T04:05:40.052Z,1.50
2023-03-10T04:08:07.384Z,1.48
2023-03-10T04:10:34.211Z,1.25
2023-03-10T04:13:01.037Z,1.38
2023-03-10T04:15:27.891Z,1.10
2023-03-10T04:17:54.772Z,1.23
2023-03-10T04:20:21.577Z,1.30
2023-03-10T04:22:48.511Z,1.30
2023-03-10T04:25:15.308Z,1.27
2023-03-10T04:27:42.120Z,1.15
2023-03-10T04:30:10.128Z,1.52
2023-03-10T04:32:37.475Z,1.67
2023-03-10T04:35:05.099Z,1.70
2023-03-10T04:37:31.921Z,2.10
2023-03-10T04:39:58.871Z,1.85
2023-03-10T04:42:27.607Z,2.20
2023-03-10T04:44:54.443Z,2.80
2023-03-10T04:47:21.434Z,2.83
2023-03-10T04:49:48.202Z,3.50
2023-03-10T04:52:15.063Z,3.45
2023-03-10T04:54:41.933Z,3.08
2023-03-10T04:57:09.469Z,3.28
2023-03-10T04:59:36.392Z,3.05
2023-03-10T05:02:03.353Z,3.20
2023-03-10T05:04:30.257Z,3.30
2023-03-10T05:06:57.125Z,2.90
2023-03-10T05:09:24.125Z,3.03
2023-03-10T05:11:50.980Z,2.83
2023-03-10T05:14:17.953Z,2.50
2023-03-10T05:16:46.980Z,2.80
2023-03-10T05:19:13.763Z,2.28
2023-03-10T05:21:40.551Z,2.28
2023-03-10T05:24:07.570Z,2.33
2023-03-10T05:26:35.124Z,1.92
2023-03-10T05:29:01.993Z,2.25
2023-03-10T05:31:28.819Z,2.28
2023-03-10T05:33:55.815Z,2.65
2023-03-10T05:36:22.719Z,2.70
2023-03-10T05:38:49.920Z,2.10
2023-03-10T05:41:16.972Z,2.22
2023-03-10T05:43:43.786Z,2.22
2023-03-10T05:46:10.996Z,2.03
2023-03-10T05:48:38.033Z,2.08
2023-03-10T05:51:12.062Z,2.03
2023-03-10T05:53:39.400Z,1.83
2023-03-10T05:56:10.719Z,2.10
2023-03-10T05:58:37.642Z,1.88
2023-03-10T06:01:04.762Z,1.50
2023-03-10T06:03:31.803Z,1.60
2023-03-10T06:05:59.359Z,1.63
2023-03-10T06:08:28.175Z,1.50
2023-03-10T06:10:55.165Z,1.40
2023-03-10T06:13:22.364Z,1.58
2023-03-10T06:15:50.219Z,1.60
2023-03-10T06:18:17.518Z,1.60
2023-03-10T06:20:44.527Z,1.30
2023-03-10T06:23:11.456Z,1.50
2023-03-10T06:25:38.291Z,1.30
2023-03-10T06:28:06.598Z,1.40
2023-03-10T06:30:35.353Z,1.60
2023-03-10T06:33:02.363Z,1.52
2023-03-10T06:35:29.621Z,1.60
2023-03-10T06:37:56.430Z,1.30
2023-03-10T06:40:23.691Z,1.33
2023-03-10T06:42:50.852Z,1.23
2023-03-10T06:45:17.735Z,1.30
2023-03-10T06:47:45.004Z,1.40
2023-03-10T06:50:12.655Z,1.30
2023-03-10T06:52:39.708Z,1.20
2023-03-10T06:55:06.875Z,1.40
2023-03-10T06:57:33.874Z,1.20
2023-03-10T07:00:00.710Z,1.20
2023-03-10T07:02:27.579Z,1.40
2023-03-10T07:04:54.532Z,1.30
2023-03-10T07:07:21.435Z,1.40
2023-03-10T07:09:48.242Z,1.40
2023-03-10T07:12:15.108Z,1.30
2023-03-10T07:14:41.933Z,1.30
2023-03-10T07:17:08.935Z,1.40
2023-03-10T07:19:36.989Z,1.27
2023-03-10T07:22:03.886Z,1.50
2023-03-10T07:24:30.735Z,1.42
2023-03-10T07:26:59.413Z,1.70
2023-03-10T07:29:26.339Z,1.88
2023-03-10T07:31:53.349Z,1.45
2023-03-10T07:34:20.434Z,1.95
2023-03-10T07:36:47.369Z,1.70
2023-03-10T07:39:14.280Z,1.65
2023-03-10T07:41:41.191Z,2.05
2023-03-10T07:44:08.278Z,1.67
2023-03-10T07:46:35.553Z,1.45
2023-03-10T07:49:04.474Z,1.15
2023-03-10T07:51:32.028Z,1.20
2023-03-10T07:53:59.223Z,2.35
2023-03-10T07:56:26.061Z,1.15
2023-03-10T07:58:53.034Z,1.35
2023-03-10T08:01:21.125Z,0.93
2023-03-10T08:03:48.496Z,0.95
2023-03-10T08:06:19.869Z,1.00
2023-03-10T08:08:47.045Z,0.77
2023-03-10T08:11:13.860Z,0.90
2023-03-10T08:13:41.725Z,0.80
2023-03-10T08:16:08.906Z,1.05
2023-03-10T08:18:35.820Z,1.08
2023-03-10T08:21:06.776Z,1.10
2023-03-10T08:23:33.833Z,0.95
2023-03-10T08:26:03.589Z,0.98
2023-03-10T08:28:31.173Z,1.20
2023-03-10T08:31:04.765Z,1.30
2023-03-10T08:33:32.632Z,1.08
2023-03-10T08:36:04.167Z,0.80
2023-03-10T08:38:31.288Z,0.98
2023-03-10T08:40:58.162Z,0.80
2023-03-10T08:43:24.983Z,0.88
2023-03-10T08:45:51.857Z,0.50
2023-03-10T08:48:18.676Z,0.63
2023-03-10T08:50:45.584Z,0.40
2023-03-10T08:53:12.788Z,0.40
2023-03-10T08:55:39.617Z,0.50
2023-03-10T08:58:06.571Z,0.38
2023-03-10T09:00:33.351Z,0.20
2023-03-10T09:03:00.275Z,0.40
2023-03-10T09:05:28.252Z,0.40
2023-03-10T09:07:55.799Z,0.30
2023-03-10T09:10:22.747Z,0.47
2023-03-10T09:12:49.614Z,0.30
2023-03-10T09:15:16.552Z,0.43
2023-03-10T09:17:43.368Z,0.35
2023-03-10T09:20:10.589Z,0.40
2023-03-10T09:22:40.219Z,0.38
2023-03-10T09:25:07.154Z,0.35
2023-03-10T09:27:34.071Z,0.30
2023-03-10T09:30:01.591Z,0.40
2023-03-10T09:32:28.786Z,0.28
2023-03-10T09:34:55.655Z,0.30
2023-03-10T09:37:22.519Z,0.38
2023-03-10T09:39:49.402Z,0.30
2023-03-10T09:42:37.412Z,0.30
2023-03-10T09:45:12.792Z,0.20
2023-03-10T09:47:46.039Z,0.20
2023-03-10T09:50:12.822Z,0.25
2023-03-10T09:52:42.698Z,0.30
2023-03-10T09:55:33.659Z,0.13
2023-03-10T09:58:03.063Z,0.30
2023-03-10T10:00:38.084Z,0.30
2023-03-10T10:03:15.384Z,0.20
2023-03-10T10:05:42.995Z,0.20
2023-03-10T10:08:26.057Z,0.13
2023-03-10T10:10:55.562Z,0.20
2023-03-10T10:13:25.130Z,0.22
2023-03-10T10:16:24.441Z,0.30
2023-03-10T10:19:00.191Z,0.20
2023-03-10T10:21:42.333Z,0.30
2023-03-10T10:24:10.348Z,0.40
2023-03-10T10:26:37.256Z,0.30
2023-03-10T10:29:18.756Z,0.38
2023-03-10T10:32:04.932Z,0.20
2023-03-10T10:34:32.289Z,0.40
2023-03-10T10:36:59.839Z,0.22
2023-03-10T10:39:40.796Z,0.20
2023-03-10T10:42:21.545Z,0.40
2023-03-10T10:44:51.310Z,0.20
2023-03-10T10:47:24.461Z,0.35
2023-03-10T10:49:51.486Z,0.50
2023-03-10T10:52:20.254Z,0.50
2023-03-10T10:54:54.211Z,0.60
2023-03-10T10:57:22.044Z,0.70
2023-03-10T10:59:48.981Z,0.68
2023-03-10T11:02:22.811Z,0.60
2023-03-10T11:04:50.081Z,0.43
2023-03-10T11:07:19.776Z,0.40
2023-03-10T11:09:48.001Z,0.40
2023-03-10T11:12:22.308Z,0.50
2023-03-10T11:15:08.130Z,0.52
2023-03-10T11:17:34.911Z,0.35
2023-03-10T11:20:13.775Z,0.57
2023-03-10T11:22:52.328Z,0.40
2023-03-10T11:25:38.296Z,0.30
2023-03-10T11:28:23.935Z,0.30
2023-03-10T11:30:54.649Z,0.38
2023-03-10T11:33:21.432Z,0.28
2023-03-10T11:35:53.579Z,0.30
2023-03-10T11:38:39.029Z,0.30
2023-03-10T11:41:13.304Z,0.30
2023-03-10T11:43:59.086Z,0.40
2023-03-10T11:46:31.198Z,0.20
2023-03-10T11:49:11.173Z,0.40
2023-03-10T11:51:39.804Z,0.30
2023-03-10T11:54:36.142Z,0.57
2023-03-10T11:57:22.287Z,0.60
2023-03-10T11:59:54.741Z,0.57
2023-03-10T12:02:24.754Z,0.47
2023-03-10T12:04:59.033Z,0.60
2023-03-10T12:07:25.865Z,0.70
2023-03-10T12:09:54.622Z,0.93
2023-03-10T12:12:32.369Z,0.70
2023-03-10T12:15:00.799Z,0.80
2023-03-10T12:17:28.295Z,0.75
2023-03-10T12:20:12.174Z,0.80
2023-03-10T12:22:46.835Z,1.13
2023-03-10T12:25:37.605Z,1.00
2023-03-10T12:28:16.990Z,0.95
2023-03-10T12:30:44.197Z,0.88
2023-03-10T12:33:29.931Z,1.00
2023-03-10T12:36:06.322Z,1.02
2023-03-10T12:38:54.011Z,0.85
2023-03-10T12:41:26.625Z,0.90
2023-03-10T12:43:53.498Z,0.90
2023-03-10T12:46:23.380Z,0.93
2023-03-10T12:48:53.901Z,0.90
2023-03-10T12:51:24.600Z,0.80
2023-03-10T12:53:58.676Z,0.85
2023-03-10T12:56:25.483Z,1.00
2023-03-10T12:58:56.273Z,1.00
2023-03-10T13:01:24.249Z,1.30
2023-03-10T13:03:52.890Z,1.10
2023-03-10T13:06:22.925Z,1.15
2023-03-10T13:08:52.175Z,1.13
2023-03-10T13:11:25.260Z,1.13
2023-03-10T13:13:55.205Z,1.00
2023-03-10T13:16:22.154Z,1.02
2023-03-10T13:18:49.920Z,0.93
2023-03-10T13:21:24.937Z,0.80
2023-03-10T13:23:51.880Z,0.90
2023-03-10T13:26:18.769Z,0.80
2023-03-10T13:28:56.270Z,0.93
2023-03-10T13:31:24.815Z,0.90
2023-03-10T13:33:54.206Z,0.80
2023-03-10T13:36:21.221Z,1.02
2023-03-10T13:38:48.168Z,0.73
2023-03-10T13:41:14.961Z,0.77
2023-03-10T13:43:42.478Z,0.82
2023-03-10T13:46:16.895Z,1.00
2023-03-10T13:48:44.354Z,0.90
2023-03-10T13:51:18.130Z,0.90
2023-03-10T13:53:46.198Z,0.85
2023-03-10T13:56:18.366Z,0.85
2023-03-10T13:58:46.206Z,1.00
2023-03-10T14:01:17.180Z,0.80
2023-03-10T14:03:55.345Z,0.70
2023-03-10T14:08:50.504Z,0.77
2023-03-10T14:11:26.290Z,0.85
2023-03-10T14:13:53.178Z,0.85
2023-03-10T14:16:20.074Z,0.88
2023-03-10T14:18:46.912Z,0.90
2023-03-10T14:21:24.444Z,0.80
2023-03-10T14:23:51.917Z,0.80
2023-03-10T14:26:18.827Z,0.90
2023-03-10T14:28:45.661Z,1.00
2023-03-10T14:31:20.706Z,0.88
2023-03-10T14:33:47.635Z,0.80
2023-03-10T14:36:14.656Z,0.80
2023-03-10T14:38:41.989Z,1.00
2023-03-10T14:41:11.109Z,0.82
2023-03-10T14:43:39.300Z,0.80
2023-03-10T14:46:06.584Z,0.90
2023-03-10T14:48:40.025Z,0.90
2023-03-10T14:51:07.065Z,0.82
2023-03-10T14:53:34.118Z,0.70
2023-03-10T14:56:01.969Z,0.82
2023-03-10T14:58:33.427Z,0.90
2023-03-10T15:01:00.689Z,0.80
2023-03-10T15:03:27.984Z,0.90
2023-03-10T15:05:54.823Z,0.90
2023-03-10T15:08:21.637Z,0.90
2023-03-10T15:10:50.769Z,1.00
2023-03-10T15:13:22.660Z,1.00
2023-03-10T15:18:18.001Z,0.80
2023-03-10T15:20:45.126Z,1.20
2023-03-10T15:23:15.615Z,0.80
2023-03-10T15:25:45.726Z,1.10
2023-03-10T15:28:12.953Z,1.02
2023-03-10T15:30:39.765Z,1.00
2023-03-10T15:33:06.576Z,1.00
2023-03-10T15:35:33.600Z,0.80
2023-03-10T15:38:00.527Z,0.80
2023-03-10T15:40:29.004Z,0.90
2023-03-10T15:42:57.506Z,0.75
2023-03-10T15:45:25.614Z,0.80
2023-03-10T15:47:52.651Z,0.73
2023-03-10T15:50:19.960Z,0.93
2023-03-10T15:52:47.837Z,1.17
2023-03-10T15:55:17.612Z,1.00
2023-03-10T15:57:44.883Z,1.20
2023-03-10T16:00:12.620Z,0.93
2023-03-10T16:02:39.504Z,1.20
2023-03-10T16:05:06.971Z,1.00
2023-03-10T16:07:33.873Z,1.00
2023-03-10T16:10:00.789Z,1.15
2023-03-10T16:12:27.658Z,1.10
2023-03-10T16:14:55.485Z,1.05
2023-03-10T16:17:22.943Z,1.20
2023-03-10T16:19:50.119Z,1.00
2023-03-10T16:22:17.449Z,0.98
2023-03-10T16:24:44.511Z,1.00
2023-03-10T16:27:11.390Z,0.95
2023-03-10T16:29:40.392Z,0.90
2023-03-10T16:32:07.901Z,1.10
2023-03-10T16:34:35.137Z,0.88
2023-03-10T16:37:07.708Z,0.98
2023-03-10T16:39:34.660Z,0.93
2023-03-10T16:42:01.492Z,0.95
2023-03-10T16:44:28.325Z,0.90
2023-03-10T16:46:55.232Z,0.90
2023-03-10T16:49:22.430Z,0.80
2023-03-10T16:51:49.203Z,0.85
2023-03-10T16:54:17.651Z,1.00
2023-03-10T16:56:48.424Z,1.00
2023-03-10T16:59:18.289Z,0.90
2023-03-10T17:01:45.716Z,1.10
2023-03-10T17:04:12.869Z,0.82
2023-03-10T17:06:39.851Z,0.85
2023-03-10T17:09:07.748Z,1.20
2023-03-10T17:11:38.062Z,1.25
2023-03-10T17:14:05.943Z,1.00
2023-03-10T17:16:33.755Z,1.00
2023-03-10T17:19:02.034Z,1.05
2023-03-10T17:21:32.783Z,0.98
2023-03-10T17:23:59.612Z,1.30
2023-03-10T17:26:26.586Z,1.13
2023-03-10T17:28:53.452Z,1.20
2023-03-10T17:31:23.574Z,0.93
2023-03-10T17:33:51.883Z,1.05
2023-03-10T17:36:19.056Z,1.10
2023-03-10T17:38:45.971Z,1.10
2023-03-10T17:41:14.345Z,1.27
2023-03-10T17:43:41.274Z,1.13
2023-03-10T17:46:09.670Z,1.30
2023-03-10T17:48:36.810Z,1.27
2023-03-10T17:51:03.950Z,1.30
2023-03-10T17:53:31.177Z,1.23
2023-03-10T17:55:58.075Z,1.40
2023-03-10T17:58:26.528Z,1.10
2023-03-10T18:00:53.485Z,1.35
2023-03-10T18:03:20.559Z,1.25
2023-03-10T18:05:47.592Z,1.23
2023-03-10T18:08:14.578Z,1.92
2023-03-10T18:10:41.511Z,1.90
2023-03-10T18:13:10.911Z,2.15
2023-03-10T18:15:38.274Z,1.90
2023-03-10T18:18:05.303Z,1.60
2023-03-10T18:20:32.445Z,1.60
2023-03-10T18:23:00.539Z,1.70
2023-03-10T18:25:27.411Z,1.80
2023-03-10T18:27:54.251Z,1.63
2023-03-10T18:30:21.165Z,1.77
2023-03-10T18:32:48.121Z,1.70
2023-03-10T18:35:15.146Z,1.67
2023-03-10T18:37:41.941Z,1.45
2023-03-10T18:40:09.273Z,2.10
2023-03-10T18:42:36.173Z,1.83
2023-03-10T18:45:03.268Z,1.98
2023-03-10T18:47:30.124Z,1.88
2023-03-10T18:49:58.630Z,1.92
2023-03-10T18:52:25.687Z,2.20
2023-03-10T18:54:52.542Z,2.00
2023-03-10T18:57:19.509Z,2.13
2023-03-10T18:59:46.420Z,1.95
2023-03-10T19:02:14.108Z,2.00
2023-03-10T19:04:41.318Z,2.30
2023-03-10T19:07:08.418Z,2.00
2023-03-10T19:09:35.248Z,2.13
2023-03-10T19:12:02.136Z,2.40
2023-03-10T19:14:28.996Z,2.58
2023-03-10T19:16:55.873Z,2.50
2023-03-10T19:19:22.704Z,2.40
2023-03-10T19:21:49.649Z,3.97
2023-03-10T19:24:16.430Z,3.60
2023-03-10T19:26:43.519Z,3.95
2023-03-10T19:29:10.493Z,4.18
2023-03-10T19:31:37.358Z,4.10
2023-03-10T19:34:04.295Z,3.83
2023-03-10T19:36:31.139Z,3.50
2023-03-10T19:38:57.985Z,4.10
2023-03-10T19:41:24.894Z,3.85
2023-03-10T19:43:52.069Z,3.55
2023-03-10T19:46:20.218Z,3.50
2023-03-10T19:48:47.186Z,4.35
2023-03-10T19:51:21.631Z,3.60
2023-03-10T19:53:49.941Z,3.30
2023-03-10T19:56:17.746Z,3.25
2023-03-10T19:58:45.939Z,3.53
2023-03-10T20:01:13.770Z,4.72
2023-03-10T20:03:40.888Z,3.95
2023-03-10T20:06:08.073Z,4.22
2023-03-10T20:08:35.300Z,4.20
2023-03-10T20:11:02.409Z,4.53
2023-03-10T20:13:29.807Z,4.68
2023-03-10T20:15:57.600Z,4.70
2023-03-10T20:18:24.874Z,7.85
2023-03-10T20:20:51.696Z,9.75
2023-03-10T20:23:18.643Z,8.82
2023-03-10T20:25:46.437Z,9.95
2023-03-10T20:28:13.362Z,7.82
2023-03-10T20:30:41.244Z,7.22
2023-03-10T20:33:08.315Z,8.10
2023-03-10T20:35:35.145Z,7.88
2023-03-10T20:38:02.272Z,7.53
2023-03-10T20:40:29.325Z,8.07
2023-03-10T20:42:57.241Z,6.38
2023-03-10T20:45:24.077Z,6.35
2023-03-10T20:47:53.237Z,5.93
2023-03-10T20:50:20.785Z,5.78
2023-03-10T20:52:47.723Z,6.60
2023-03-10T20:55:23.014Z,5.43
2023-03-10T20:57:50.722Z,6.07
2023-03-10T21:00:17.919Z,6.05
2023-03-10T21:02:45.635Z,6.80
2023-03-10T21:05:12.653Z,6.10
2023-03-10T21:07:39.446Z,5.72
2023-03-10T21:10:07.593Z,6.78
2023-03-10T21:12:34.510Z,6.88
2023-03-10T21:15:01.400Z,7.40
2023-03-10T21:17:28.257Z,7.32
2023-03-10T21:19:55.185Z,8.65
2023-03-10T21:22:22.230Z,7.90
2023-03-10T21:24:49.418Z,8.05
2023-03-10T21:27:16.375Z,7.32
2023-03-10T21:29:43.423Z,7.47
2023-03-10T21:32:10.276Z,7.53
2023-03-10T21:34:37.176Z,7.90
2023-03-10T21:37:03.964Z,7.22
2023-03-10T21:39:30.791Z,7.35
2023-03-10T21:41:57.635Z,8.82
2023-03-10T21:44:24.716Z,14.65
2023-03-10T21:46:51.654Z,10.30
2023-03-10T21:49:18.550Z,9.07
2023-03-10T21:51:45.407Z,9.48
2023-03-10T21:54:12.200Z,9.38
2023-03-10T21:56:39.270Z,8.35
2023-03-10T21:59:07.334Z,8.05
2023-03-10T22:01:34.312Z,8.80
2023-03-10T22:04:01.263Z,8.30
2023-03-10T22:06:28.151Z,7.63
2023-03-10T22:08:54.995Z,7.95
2023-03-10T22:11:21.862Z,9.50
2023-03-10T22:13:48.737Z,8.02
2023-03-10T22:16:16.584Z,9.02
2023-03-10T22:18:43.826Z,9.25
2023-03-10T22:21:11.136Z,9.02
2023-03-10T22:23:38.023Z,8.60
2023-03-10T22:26:05.072Z,9.00
2023-03-10T22:28:32.421Z,8.30
2023-03-10T22:30:59.275Z,8.88
2023-03-10T22:33:26.157Z,9.30
2023-03-10T22:35:53.125Z,9.65
2023-03-10T22:38:20.570Z,10.15
2023-03-10T22:40:47.922Z,10.30
2023-03-10T22:43:15.146Z,9.93
2023-03-10T22:45:42.097Z,10.00
2023-03-10T22:48:08.985Z,10.98
2023-03-10T22:50:37.491Z,9.65
2023-03-10T22:53:05.499Z,10.40
2023-03-10T22:55:35.656Z,9.68
2023-03-10T22:58:06.995Z,10.15
2023-03-10T23:00:34.197Z,9.38
2023-03-10T23:03:01.021Z,9.68
2023-03-10T23:05:28.373Z,9.32
2023-03-10T23:07:55.434Z,9.23
2023-03-10T23:10:23.536Z,10.32
2023-03-10T23:12:51.069Z,8.85
2023-03-10T23:15:25.217Z,8.98
2023-03-10T23:17:53.338Z,8.80
2023-03-10T23:20:20.488Z,9.40
2023-03-10T23:22:47.444Z,9.18
2023-03-10T23:25:19.440Z,8.80
2023-03-10T23:30:17.604Z,8.57
2023-03-10T23:32:45.377Z,8.98
2023-03-10T23:35:12.903Z,9.50
2023-03-10T23:37:39.786Z,8.23
2023-03-10T23:40:11.572Z,8.40
2023-03-10T23:42:38.643Z,8.98
2023-03-10T23:45:06.252Z,8.55
2023-03-10T23:47:33.920Z,8.13
2023-03-10T23:50:00.960Z,8.63
2023-03-10T23:52:27.817Z,8.10
2023-03-10T23:54:55.126Z,7.53
2023-03-10T23:57:21.972Z,8.27
2023-03-10T23:59:48.915Z,7.38
